Terminal Aerodrome Forecast
Issued by NWS

Home | Current Version | Previous Version | Text Only | Print | Product List | Glossary On
Versions: 1 2 3 4 5 6 7 8 9 10 11 12 13 14 15
497
FTUS46 KMTR 230531
TAFSTS
TAF
KSTS 230531Z 2306/2406 26005KT P6SM FEW250
     FM230800 31007KT P6SM FEW010 SCT250
     FM231700 29005KT P6SM FEW015 SCT200
     FM240300 21003KT P6SM SCT020 BKN200=

USA.gov is the U.S. government's official web portal to all federal, state and local government web resources and services.